Time;durP1;ratioP1;P1;durP2;ratioP2;P2;SDS_P1;SDS_P2;PMS_P1;PMS_P2;Temp;Humidity;BMP_temperature;BMP_pressure;BME280_temperature;BME280_humidity;BME280_pressure;Samples;Min_cycle;Max_cycle;Signal;HPM_P1;HPM_P2
2021/01/25 00:01:39;;;;;;;3.47;3.17;;;;;;;2.37;100.00;100625.41;5054345;28;20499;-63
2021/01/25 00:04:04;;;;;;;7.38;3.72;;;;;;;2.37;100.00;100625.41;5071364;28;20032;-63
2021/01/25 00:06:32;;;;;;;4.65;3.33;;;;;;;2.38;100.00;100638.69;5071514;28;20040;-63
2021/01/25 00:08:58;;;;;;;4.00;3.38;;;;;;;2.41;100.00;100648.25;5071818;28;20090;-62
2021/01/25 00:11:23;;;;;;;5.95;3.40;;;;;;;2.42;100.00;100645.34;5071692;28;20036;-62
2021/01/25 00:13:49;;;;;;;3.42;3.03;;;;;;;2.43;100.00;100640.81;5071554;28;20032;-62
2021/01/25 00:16:14;;;;;;;4.45;3.03;;;;;;;2.42;100.00;100655.28;5071689;28;20387;-62
2021/01/25 00:18:40;;;;;;;4.82;3.20;;;;;;;2.40;100.00;100657.34;5071431;28;20047;-63
2021/01/25 00:21:06;;;;;;;4.22;3.28;;;;;;;2.38;100.00;100662.09;5071528;28;20042;-62
2021/01/25 00:23:31;;;;;;;4.38;3.40;;;;;;;2.36;100.00;100661.47;5071402;28;20032;-62
2021/01/25 00:25:57;;;;;;;5.10;3.65;;;;;;;2.34;100.00;100668.91;5071414;28;20422;-63
2021/01/25 00:28:23;;;;;;;6.80;4.10;;;;;;;2.31;100.00;100682.78;5071319;28;20048;-63
2021/01/25 00:30:48;;;;;;;5.35;3.42;;;;;;;2.32;100.00;100687.13;5071230;28;20397;-62
2021/01/25 00:33:14;;;;;;;6.57;3.80;;;;;;;2.30;100.00;100699.97;5071308;28;20032;-63
2021/01/25 00:35:39;;;;;;;7.90;4.13;;;;;;;2.29;100.00;100699.13;5071317;28;20478;-63
2021/01/25 00:38:05;;;;;;;7.82;3.35;;;;;;;2.30;100.00;100710.75;5071247;28;20040;-63
2021/01/25 00:40:31;;;;;;;7.82;3.42;;;;;;;2.29;100.00;100715.31;5071111;28;20044;-62
2021/01/25 00:42:56;;;;;;;5.20;3.45;;;;;;;2.28;100.00;100719.03;5071135;28;20124;-63
2021/01/25 00:45:22;;;;;;;7.03;3.72;;;;;;;2.27;100.00;100719.22;5070928;28;20037;-63
2021/01/25 00:47:47;;;;;;;4.00;3.67;;;;;;;2.26;100.00;100736.41;5071033;28;20106;-63
2021/01/25 00:50:13;;;;;;;5.07;3.80;;;;;;;2.24;100.00;100741.97;5071057;28;20390;-63
2021/01/25 00:52:39;;;;;;;5.15;3.95;;;;;;;2.23;100.00;100744.84;5070975;28;20036;-62
2021/01/25 00:55:06;;;;;;;7.30;3.85;;;;;;;2.21;100.00;100750.44;5053182;28;20032;-68
2021/01/25 00:57:32;;;;;;;5.32;4.78;;;;;;;2.19;100.00;100746.28;5070996;28;20036;-63
2021/01/25 00:59:57;;;;;;;8.45;5.07;;;;;;;2.16;100.00;100752.88;5070900;28;20361;-62
2021/01/25 01:02:23;;;;;;;6.45;4.28;;;;;;;2.15;100.00;100762.00;5035998;28;20043;-62
2021/01/25 01:04:48;;;;;;;9.20;4.45;;;;;;;2.13;100.00;100769.44;5070966;28;20482;-63
2021/01/25 01:07:14;;;;;;;4.93;3.72;;;;;;;2.13;100.00;100773.97;5070577;28;20437;-63
2021/01/25 01:09:39;;;;;;;5.78;4.10;;;;;;;2.12;100.00;100773.16;5070670;28;20048;-63
2021/01/25 01:12:06;;;;;;;7.68;4.40;;;;;;;2.14;100.00;100786.44;5070761;28;20041;-66
2021/01/25 01:14:31;;;;;;;5.15;4.40;;;;;;;2.14;100.00;100783.72;5070780;28;20059;-62
2021/01/25 01:16:57;;;;;;;5.43;3.90;;;;;;;2.16;100.00;100793.28;5070929;28;20041;-62
2021/01/25 01:19:22;;;;;;;5.07;4.05;;;;;;;2.17;100.00;100786.88;5070669;28;20116;-62
2021/01/25 01:21:48;;;;;;;7.25;4.10;;;;;;;2.18;100.00;100793.09;5052983;28;20130;-62
2021/01/25 01:24:15;;;;;;;6.05;4.13;;;;;;;2.17;100.00;100796.81;5070571;28;20060;-62
2021/01/25 01:26:42;;;;;;;4.32;3.90;;;;;;;2.17;100.00;100804.91;5070544;28;20040;-63
2021/01/25 01:29:07;;;;;;;5.80;3.65;;;;;;;2.17;100.00;100804.91;5052565;28;20040;-62
2021/01/25 01:31:33;;;;;;;5.70;4.45;;;;;;;2.19;100.00;100813.63;5070650;28;20375;-63
2021/01/25 01:33:59;;;;;;;6.75;4.32;;;;;;;2.21;100.00;100819.66;5070627;28;20036;-62
2021/01/25 01:36:24;;;;;;;5.20;3.90;;;;;;;2.25;100.00;100821.78;5052631;28;20036;-63
2021/01/25 01:38:50;;;;;;;4.40;4.00;;;;;;;2.30;100.00;100823.94;5070472;28;20086;-62
2021/01/25 01:41:16;;;;;;;7.53;4.10;;;;;;;2.31;100.00;100820.22;5070474;28;20043;-62
2021/01/25 01:43:41;;;;;;;5.97;4.07;;;;;;;2.34;100.00;100822.53;5070468;28;20051;-63
2021/01/25 01:46:07;;;;;;;4.65;4.20;;;;;;;2.36;100.00;100823.16;5070366;28;20047;-63
2021/01/25 01:48:33;;;;;;;4.22;3.83;;;;;;;2.36;100.00;100823.16;5070454;28;20036;-62
2021/01/25 01:50:58;;;;;;;6.80;4.53;;;;;;;2.36;100.00;100828.56;5052416;28;20063;-62
2021/01/25 01:53:24;;;;;;;4.13;3.70;;;;;;;2.36;100.00;100833.94;5070576;28;20033;-63
2021/01/25 01:55:50;;;;;;;5.05;4.00;;;;;;;2.32;100.00;100835.34;5070395;28;20032;-62
2021/01/25 01:58:16;;;;;;;4.20;3.80;;;;;;;2.28;100.00;100829.53;5070339;28;20044;-63
2021/01/25 02:00:42;;;;;;;6.82;4.18;;;;;;;2.25;100.00;100839.81;5052253;28;20066;-63
2021/01/25 02:03:07;;;;;;;6.13;4.20;;;;;;;2.23;100.00;100833.78;5070316;28;20120;-63
2021/01/25 02:05:33;;;;;;;3.90;3.58;;;;;;;2.21;100.00;100852.00;5070207;28;20043;-62
2021/01/25 02:08:00;;;;;;;5.78;3.75;;;;;;;2.17;100.00;100856.94;5070085;28;20056;-63
2021/01/25 02:10:28;;;;;;;4.05;3.65;;;;;;;2.15;100.00;100863.53;5070225;28;20422;-63
2021/01/25 02:12:57;;;;;;;9.35;4.00;;;;;;;2.13;100.00;100870.97;5070099;28;20067;-63
2021/01/25 02:15:25;;;;;;;6.00;3.47;;;;;;;2.11;100.00;100876.53;5070100;28;20040;-62
2021/01/25 02:17:51;;;;;;;5.00;4.32;;;;;;;2.06;100.00;100882.47;5070174;28;20105;-63
2021/01/25 02:20:31;;;;;;;5.35;3.58;;;;;;;2.05;100.00;100880.78;5070198;28;20078;-63
2021/01/25 02:23:05;;;;;;;5.15;4.25;;;;;;;2.00;100.00;100872.44;5070170;28;20043;-63
2021/01/25 02:25:49;;;;;;;5.85;4.05;;;;;;;1.99;100.00;100880.72;5070118;28;20062;-63
2021/01/25 02:28:15;;;;;;;6.43;3.90;;;;;;;1.96;100.00;100881.94;5071884;28;20036;-62
2021/01/25 02:30:43;;;;;;;6.70;3.35;;;;;;;1.95;100.00;100885.66;5073753;28;20051;-63
2021/01/25 02:33:09;;;;;;;6.22;3.80;;;;;;;1.94;100.00;100889.34;5073797;28;20367;-63
2021/01/25 02:35:36;;;;;;;5.10;4.22;;;;;;;1.92;100.00;100896.78;5055507;28;20035;-62
2021/01/25 02:38:07;;;;;;;5.68;4.40;;;;;;;1.90;100.00;100893.41;5073887;28;20036;-63
2021/01/25 02:40:33;;;;;;;5.75;4.22;;;;;;;1.86;100.00;100897.50;5073701;28;20116;-62
2021/01/25 02:43:00;;;;;;;4.35;3.95;;;;;;;1.85;100.00;100905.78;5073757;28;20044;-62
2021/01/25 02:45:25;;;;;;;6.35;4.15;;;;;;;1.82;100.00;100906.97;5073482;28;20036;-62
2021/01/25 02:47:54;;;;;;;7.97;4.35;;;;;;;1.80;100.00;100914.41;5073251;28;20387;-63
2021/01/25 02:50:20;;;;;;;6.75;4.80;;;;;;;1.78;100.00;100911.91;5073186;28;20055;-63
2021/01/25 02:52:45;;;;;;;7.18;5.25;;;;;;;1.78;100.00;100911.06;5073174;28;20036;-62
2021/01/25 02:55:11;;;;;;;6.05;4.32;;;;;;;1.76;100.00;100915.81;5073109;28;20574;-63
2021/01/25 02:57:38;;;;;;;6.18;4.30;;;;;;;1.73;100.00;100908.06;5073131;28;20434;-63
2021/01/25 03:00:09;;;;;;;6.40;4.47;;;;;;;1.72;100.00;100917.16;5073054;28;20036;-62
2021/01/25 03:02:36;;;;;;;6.05;4.13;;;;;;;1.71;100.00;100918.19;5072991;28;20064;-63
2021/01/25 03:05:05;;;;;;;8.68;4.13;;;;;;;1.69;100.00;100914.84;5073034;28;20033;-62
2021/01/25 03:07:31;;;;;;;7.70;4.28;;;;;;;1.70;100.00;100919.22;5072552;28;20072;-63
2021/01/25 03:10:03;;;;;;;9.80;4.43;;;;;;;1.69;100.00;100928.31;5072852;28;20490;-62
2021/01/25 03:12:29;;;;;;;7.32;4.43;;;;;;;1.66;100.00;100928.66;5072705;28;20494;-63
2021/01/25 03:14:55;;;;;;;6.03;4.70;;;;;;;1.64;100.00;100936.09;5072826;28;20075;-63
2021/01/25 03:17:21;;;;;;;7.15;4.18;;;;;;;1.63;100.00;100939.81;5072721;28;20032;-63
2021/01/25 03:19:47;;;;;;;7.70;4.55;;;;;;;1.60;100.00;100941.00;5072614;28;20676;-63
2021/01/25 03:22:12;;;;;;;5.50;4.40;;;;;;;1.60;100.00;100946.41;5072633;28;20047;-63
2021/01/25 03:24:38;;;;;;;6.93;4.22;;;;;;;1.60;100.00;100948.25;5072646;28;20040;-63
2021/01/25 03:27:04;;;;;;;6.70;4.38;;;;;;;1.57;100.00;100951.31;5072444;28;20085;-63
2021/01/25 03:29:29;;;;;;;10.05;4.82;;;;;;;1.57;100.00;100951.31;5072669;28;20109;-63
2021/01/25 03:31:55;;;;;;;6.78;4.65;;;;;;;1.57;100.00;100962.06;5054545;28;20097;-63
2021/01/25 03:34:20;;;;;;;8.48;4.30;;;;;;;1.55;100.00;100961.41;5072281;28;20047;-63
2021/01/25 03:36:46;;;;;;;6.97;4.25;;;;;;;1.54;100.00;100962.41;5072308;28;20044;-63
2021/01/25 03:39:12;;;;;;;8.15;4.50;;;;;;;1.52;100.00;100966.13;5071128;28;20142;-63
2021/01/25 03:41:37;;;;;;;7.80;4.20;;;;;;;1.50;100.00;100968.16;5072261;28;20044;-63
2021/01/25 03:44:03;;;;;;;6.00;4.00;;;;;;;1.48;100.00;100970.19;5072146;28;20040;-63
2021/01/25 03:46:28;;;;;;;5.10;4.40;;;;;;;1.46;100.00;100983.00;5072141;28;20427;-63
2021/01/25 03:48:54;;;;;;;8.32;4.43;;;;;;;1.43;100.00;100986.06;5072024;28;20036;-63
2021/01/25 03:51:20;;;;;;;4.38;3.97;;;;;;;1.42;100.00;100991.63;5071951;28;20036;-63
2021/01/25 03:53:48;;;;;;;6.57;4.95;;;;;;;1.40;100.00;100988.28;5072153;28;20377;-62
2021/01/25 03:56:15;;;;;;;8.07;4.22;;;;;;;1.41;100.00;101001.56;5071925;28;20036;-62
2021/01/25 03:58:41;;;;;;;6.22;3.85;;;;;;;1.42;100.00;101002.38;5071904;28;20036;-63
2021/01/25 04:01:07;;;;;;;8.55;4.70;;;;;;;1.42;100.00;101008.59;5071876;28;20040;-63
2021/01/25 04:03:33;;;;;;;5.65;4.28;;;;;;;1.41;100.00;101006.09;5071760;28;20041;-63
2021/01/25 04:05:58;;;;;;;8.10;4.30;;;;;;;1.39;100.00;101008.09;5071528;28;20036;-63
2021/01/25 04:08:24;;;;;;;7.93;4.55;;;;;;;1.36;100.00;101009.31;5071663;28;20036;-62
2021/01/25 04:10:50;;;;;;;10.48;4.68;;;;;;;1.36;100.00;101013.84;5053540;28;20040;-63
2021/01/25 04:13:16;;;;;;;5.57;4.18;;;;;;;1.34;100.00;101022.09;5071681;28;20509;-63
2021/01/25 04:15:41;;;;;;;4.28;3.88;;;;;;;1.32;100.00;101018.75;5071616;28;20032;-62
2021/01/25 04:18:07;;;;;;;7.57;4.75;;;;;;;1.31;100.00;101021.63;5071582;28;20048;-63
2021/01/25 04:20:32;;;;;;;6.35;4.70;;;;;;;1.29;100.00;101023.66;5071407;28;20055;-63
2021/01/25 04:22:58;;;;;;;7.97;4.15;;;;;;;1.27;100.00;101021.16;5071466;28;20390;-62
2021/01/25 04:25:24;;;;;;;5.88;4.28;;;;;;;1.27;100.00;101020.31;5071296;28;20075;-63
2021/01/25 04:27:50;;;;;;;6.30;4.43;;;;;;;1.25;100.00;101025.88;5071338;28;20048;-63
2021/01/25 04:30:16;;;;;;;5.07;4.43;;;;;;;1.25;100.00;101023.19;5071248;28;20040;-63
2021/01/25 04:32:42;;;;;;;8.82;4.47;;;;;;;1.23;100.00;101025.22;5071228;28;20120;-63
2021/01/25 04:35:10;;;;;;;5.57;4.35;;;;;;;1.23;100.00;101024.38;5071197;28;20135;-63
2021/01/25 04:37:37;;;;;;;6.35;3.97;;;;;;;1.22;100.00;101028.06;5071211;28;20040;-62
2021/01/25 04:40:05;;;;;;;10.93;4.63;;;;;;;1.20;100.00;101034.44;5071094;28;20039;-63
2021/01/25 04:42:30;;;;;;;5.80;4.18;;;;;;;1.19;100.00;101040.00;5071146;28;20040;-63
2021/01/25 04:44:57;;;;;;;5.65;3.83;;;;;;;1.18;100.00;101049.09;5053059;28;20487;-63
2021/01/25 04:47:24;;;;;;;6.25;4.28;;;;;;;1.15;100.00;101060.22;5071064;28;20115;-63
2021/01/25 04:49:52;;;;;;;5.38;4.13;;;;;;;1.15;100.00;101060.22;5071046;28;20058;-63
2021/01/25 04:52:18;;;;;;;7.80;4.50;;;;;;;1.12;100.00;101065.94;5070659;28;20044;-63
2021/01/25 04:54:48;;;;;;;8.10;4.20;;;;;;;1.12;100.00;101071.31;5070983;28;20094;-63
2021/01/25 04:57:15;;;;;;;7.00;3.55;;;;;;;1.10;100.00;101076.03;5070943;28;20082;-62
2021/01/25 04:59:44;;;;;;;7.35;4.05;;;;;;;1.07;100.00;101079.09;5070982;28;20124;-63
2021/01/25 05:02:10;;;;;;;7.13;4.18;;;;;;;1.05;100.00;101083.81;5070870;28;20051;-62
2021/01/25 05:04:36;;;;;;;5.65;4.10;;;;;;;1.03;100.00;101089.34;5070870;28;20607;-62
2021/01/25 05:07:03;;;;;;;7.20;3.97;;;;;;;1.03;100.00;101085.81;5070648;28;20139;-63
2021/01/25 05:09:29;;;;;;;6.50;4.32;;;;;;;1.02;100.00;101092.19;5070762;28;20040;-63
2021/01/25 05:11:58;;;;;;;6.43;4.50;;;;;;;1.00;100.00;101094.22;5071218;28;20039;-62
2021/01/25 05:14:24;;;;;;;6.65;4.43;;;;;;;0.98;100.00;101086.34;5071225;28;20036;-63
2021/01/25 05:16:50;;;;;;;5.00;3.75;;;;;;;0.97;100.00;101100.78;5070715;28;20032;-63
2021/01/25 05:19:16;;;;;;;6.97;4.43;;;;;;;0.97;100.00;101094.56;5070688;28;20028;-63
2021/01/25 05:21:48;;;;;;;5.78;4.32;;;;;;;0.97;100.00;101099.94;5070763;28;20040;-62
2021/01/25 05:24:15;;;;;;;6.50;4.80;;;;;;;0.98;100.00;101101.63;5036135;28;20051;-63
2021/01/25 05:26:56;;;;;;;6.70;4.57;;;;;;;0.97;100.00;101105.34;5070585;28;20052;-63
2021/01/25 05:29:26;;;;;;;5.28;4.43;;;;;;;0.97;100.00;101110.72;5070592;28;20064;-63
2021/01/25 05:31:52;;;;;;;8.63;4.72;;;;;;;0.96;100.00;101109.03;5070640;28;20486;-62
2021/01/25 05:34:19;;;;;;;5.80;4.93;;;;;;;0.97;100.00;101116.09;5070542;28;20154;-63
2021/01/25 05:36:45;;;;;;;6.97;4.70;;;;;;;0.95;100.00;101124.34;5070597;28;20032;-63
2021/01/25 05:39:15;;;;;;;7.72;5.25;;;;;;;0.94;100.00;101127.19;5070561;28;20036;-62
2021/01/25 05:41:58;;;;;;;7.65;4.95;;;;;;;0.94;100.00;101122.66;5070415;28;20036;-63
2021/01/25 05:44:26;;;;;;;7.63;4.72;;;;;;;0.94;100.00;101127.19;5070529;28;20036;-63
2021/01/25 05:47:05;;;;;;;8.57;4.55;;;;;;;0.95;100.00;101139.63;5070414;28;20037;-62
2021/01/25 05:49:30;;;;;;;10.10;5.03;;;;;;;0.95;100.00;101143.16;5070350;28;20036;-63
2021/01/25 05:51:57;;;;;;;7.72;5.00;;;;;;;0.94;100.00;101143.34;5070423;28;20518;-63
2021/01/25 05:54:23;;;;;;;7.00;5.63;;;;;;;0.92;100.00;101146.19;5070319;28;20047;-63
2021/01/25 05:56:49;;;;;;;6.00;5.40;;;;;;;0.89;100.00;101152.75;5070284;28;20041;-62
2021/01/25 05:59:14;;;;;;;10.00;5.35;;;;;;;0.89;100.00;101160.81;5070330;28;20055;-63
2021/01/25 06:01:42;;;;;;;6.57;5.03;;;;;;;0.84;100.00;101165.84;5070266;28;20094;-63
2021/01/25 06:04:11;;;;;;;7.00;5.50;;;;;;;0.81;100.00;101171.59;5073421;28;20119;-63
2021/01/25 06:06:37;;;;;;;9.55;5.35;;;;;;;0.77;100.00;101170.25;5073783;28;20288;-63
2021/01/25 06:09:12;;;;;;;6.78;5.20;;;;;;;0.76;100.00;101165.88;5074015;28;20036;-63
2021/01/25 06:11:44;;;;;;;12.00;6.10;;;;;;;0.74;100.00;101165.22;5074011;28;20032;-63
2021/01/25 06:14:30;;;;;;;8.48;5.60;;;;;;;0.72;100.00;101172.63;5073897;28;20033;-63
2021/01/25 06:16:56;;;;;;;13.88;6.03;;;;;;;0.71;100.00;101172.78;5073924;28;20536;-63
2021/01/25 06:19:25;;;;;;;12.00;5.63;;;;;;;0.69;100.00;101178.31;5073726;28;20045;-63
2021/01/25 06:21:51;;;;;;;8.65;5.50;;;;;;;0.66;100.00;101178.66;5073697;28;20036;-63
2021/01/25 06:24:19;;;;;;;8.10;5.35;;;;;;;0.63;100.00;101188.91;5055741;28;20040;-63
2021/01/25 06:26:49;;;;;;;8.90;5.88;;;;;;;0.60;100.00;101184.72;5073663;28;20037;-63
2021/01/25 06:29:20;;;;;;;8.18;5.25;;;;;;;0.58;100.00;101197.50;5073563;28;20040;-63
2021/01/25 06:31:52;;;;;;;9.02;5.85;;;;;;;0.55;100.00;101208.56;5073579;28;20399;-63
2021/01/25 06:34:20;;;;;;;11.15;6.47;;;;;;;0.53;100.00;101210.59;5073512;28;20548;-63
2021/01/25 06:36:45;;;;;;;9.07;6.40;;;;;;;0.51;100.00;101207.22;5073551;28;20039;-63
2021/01/25 06:39:11;;;;;;;13.13;5.95;;;;;;;0.51;100.00;101213.44;5073415;28;20048;-63
2021/01/25 06:41:38;;;;;;;6.65;5.70;;;;;;;0.50;100.00;101219.81;5073552;28;20068;-63
2021/01/25 06:44:05;;;;;;;8.95;5.20;;;;;;;0.50;100.00;101216.28;5055414;28;20028;-63
2021/01/25 06:46:34;;;;;;;8.70;5.82;;;;;;;0.50;100.00;101227.03;5073210;28;20028;-63
2021/01/25 06:49:00;;;;;;;6.45;5.25;;;;;;;0.49;100.00;101238.78;5055388;28;20060;-63
2021/01/25 06:51:25;;;;;;;10.07;7.78;;;;;;;0.51;100.00;101244.84;5073321;28;20068;-63
2021/01/25 06:53:52;;;;;;;11.07;6.25;;;;;;;0.51;100.00;101245.66;5073190;28;20106;-63
2021/01/25 06:56:19;;;;;;;8.95;5.47;;;;;;;0.54;100.00;101261.50;5073096;28;20032;-63
2021/01/25 06:58:49;;;;;;;7.78;6.00;;;;;;;0.55;100.00;101260.47;5073143;28;20032;-63
2021/01/25 07:01:20;;;;;;;10.10;5.70;;;;;;;0.59;100.00;101269.88;5073219;28;20044;-63
2021/01/25 07:03:56;;;;;;;9.88;5.80;;;;;;;0.60;100.00;101270.72;5072986;28;20050;-63
2021/01/25 07:06:23;;;;;;;10.30;5.90;;;;;;;0.61;100.00;101272.41;5052856;28;20061;-63
2021/01/25 07:08:56;;;;;;;9.80;6.82;;;;;;;0.60;100.00;101276.09;5072958;28;20433;-63
2021/01/25 07:11:26;;;;;;;7.93;5.32;;;;;;;0.61;100.00;101277.78;5072872;28;20032;-62
2021/01/25 07:13:53;;;;;;;9.48;5.95;;;;;;;0.59;100.00;101282.47;5072592;28;20028;-63
2021/01/25 07:16:19;;;;;;;10.55;5.63;;;;;;;0.58;100.00;101289.72;5072798;28;20175;-63
2021/01/25 07:18:48;;;;;;;7.40;5.60;;;;;;;0.57;100.00;101288.03;5072650;28;20386;-63
2021/01/25 07:21:14;;;;;;;8.32;5.93;;;;;;;0.59;100.00;101295.94;5073114;28;20036;-63
2021/01/25 07:23:44;;;;;;;7.97;5.90;;;;;;;0.59;100.00;101302.13;5072725;28;20040;-63
2021/01/25 07:26:12;;;;;;;9.45;6.03;;;;;;;0.62;100.00;101300.97;5072504;28;20119;-63
2021/01/25 07:28:38;;;;;;;8.13;5.38;;;;;;;0.63;100.00;101301.81;5072547;28;20048;-62
2021/01/25 07:31:04;;;;;;;8.63;6.55;;;;;;;0.60;100.00;101300.28;5072637;28;20143;-63
2021/01/25 07:33:29;;;;;;;11.70;6.45;;;;;;;0.58;100.00;101310.38;5054404;28;20135;-63
2021/01/25 07:35:55;;;;;;;9.93;6.43;;;;;;;0.57;100.00;101308.69;5072333;28;20094;-63
2021/01/25 07:38:22;;;;;;;10.45;6.53;;;;;;;0.54;100.00;101312.56;5072385;28;20558;-63
2021/01/25 07:40:49;;;;;;;9.98;6.60;;;;;;;0.52;100.00;101325.31;5072208;28;20051;-63
2021/01/25 07:43:19;;;;;;;10.65;6.85;;;;;;;0.49;100.00;101322.94;5054182;28;20486;-63
2021/01/25 07:45:46;;;;;;;14.38;7.43;;;;;;;0.47;100.00;101329.47;5072307;28;20102;-63
2021/01/25 07:48:14;;;;;;;15.35;7.63;;;;;;;0.45;100.00;101320.75;5072379;28;20372;-63
2021/01/25 07:50:40;;;;;;;12.38;7.07;;;;;;;0.43;100.00;101333.50;5072040;28;20097;-62
2021/01/25 07:53:07;;;;;;;14.32;6.82;;;;;;;0.41;100.00;101332.84;5071974;28;20052;-63
2021/01/25 07:55:37;;;;;;;9.15;6.32;;;;;;;0.39;100.00;101337.53;5072124;28;20032;-63
2021/01/25 07:58:10;;;;;;;8.30;6.32;;;;;;;0.35;100.00;101346.91;5072013;28;20081;-63
2021/01/25 08:00:38;;;;;;;12.18;6.63;;;;;;;0.32;100.00;101348.06;5072130;28;20040;-63
2021/01/25 08:03:25;;;;;;;10.60;6.18;;;;;;;0.32;100.00;101352.63;5071922;28;20056;-63
2021/01/25 08:05:54;;;;;;;11.13;6.95;;;;;;;0.28;100.00;101363.69;5071757;28;20044;-63
2021/01/25 08:08:22;;;;;;;10.65;6.55;;;;;;;0.29;100.00;101370.75;5071532;28;20052;-63
2021/01/25 08:10:49;;;;;;;7.47;6.43;;;;;;;0.29;100.00;101375.28;5071659;28;20076;-63
2021/01/25 08:13:17;;;;;;;14.18;7.05;;;;;;;0.29;100.00;101391.41;5071687;28;20064;-63
2021/01/25 08:16:06;;;;;;;11.40;6.70;;;;;;;0.29;100.00;101386.88;5071985;28;20391;-63
2021/01/25 08:18:50;;;;;;;12.25;6.50;;;;;;;0.30;100.00;101391.22;5071666;28;20041;-63
2021/01/25 08:21:21;;;;;;;12.10;6.28;;;;;;;0.32;100.00;101396.44;5071775;28;20029;-63
2021/01/25 08:23:50;;;;;;;8.45;5.95;;;;;;;0.34;100.00;101398.97;5071454;28;20036;-63
2021/01/25 08:26:23;;;;;;;14.32;6.35;;;;;;;0.38;100.00;101403.03;5070652;28;20111;-63
2021/01/25 08:28:55;;;;;;;6.97;5.70;;;;;;;0.38;100.00;101406.56;5071463;28;20048;-63
2021/01/25 08:31:38;;;;;;;11.90;5.97;;;;;;;0.41;100.00;101408.06;5071511;28;20051;-63
2021/01/25 08:34:17;;;;;;;11.20;6.88;;;;;;;0.44;100.00;101405.91;5071328;28;20502;-62
2021/01/25 08:36:42;;;;;;;13.07;6.05;;;;;;;0.47;100.00;101413.63;5071405;28;20036;-63
2021/01/25 08:39:14;;;;;;;11.95;6.45;;;;;;;0.50;100.00;101416.00;5053005;28;20040;-63
2021/01/25 08:41:50;;;;;;;8.48;6.40;;;;;;;0.54;100.00;101413.84;5071165;28;20037;-63
2021/01/25 08:44:20;;;;;;;9.82;6.78;;;;;;;0.57;100.00;101416.19;5071231;28;20032;-63
2021/01/25 08:46:47;;;;;;;11.85;7.15;;;;;;;0.60;100.00;101415.88;5071076;28;20119;-63
2021/01/25 08:49:18;;;;;;;13.13;6.78;;;;;;;0.65;100.00;101402.78;5070993;28;20085;-63
2021/01/25 08:51:59;;;;;;;10.75;6.85;;;;;;;0.69;100.00;101406.81;5071055;28;20043;-63
2021/01/25 08:54:28;;;;;;;8.15;6.45;;;;;;;0.74;100.00;101407.19;5073501;28;20031;-63
2021/01/25 08:56:55;;;;;;;10.43;7.55;;;;;;;0.80;100.00;101411.88;5080023;28;20044;-64
2021/01/25 08:59:33;;;;;;;13.35;6.95;;;;;;;0.86;100.00;101411.22;5070466;28;20372;-63
2021/01/25 09:02:13;;;;;;;12.50;7.00;;;;;;;0.92;100.00;101414.28;5071369;28;20043;-63
2021/01/25 09:04:39;;;;;;;12.88;7.05;;;;;;;0.96;100.00;101412.94;5069709;28;20043;-63
2021/01/25 09:07:11;;;;;;;18.13;7.78;;;;;;;1.00;100.00;101417.81;5069427;28;20048;-62
2021/01/25 09:09:37;;;;;;;13.68;7.93;;;;;;;1.04;100.00;101424.56;5070518;28;20032;-59
2021/01/25 09:12:03;;;;;;;17.35;8.02;;;;;;;1.09;100.00;101437.50;5069426;28;20036;-59
2021/01/25 09:14:28;;;;;;;12.52;7.78;;;;;;;1.14;100.00;101438.69;5069232;28;20044;-60
2021/01/25 09:16:54;;;;;;;13.27;7.75;;;;;;;1.21;100.00;101452.28;5070662;28;20033;-59
2021/01/25 09:19:19;;;;;;;15.77;7.80;;;;;;;1.27;100.00;101446.28;5070369;28;20044;-59
2021/01/25 09:21:45;;;;;;;14.32;7.63;;;;;;;1.34;100.00;101452.66;5070798;28;20041;-59
2021/01/25 09:24:11;;;;;;;11.50;7.65;;;;;;;1.39;100.00;101446.75;5070444;28;20037;-60
2021/01/25 09:26:36;;;;;;;10.13;6.95;;;;;;;1.45;100.00;101452.34;5070651;28;20118;-59
2021/01/25 09:29:02;;;;;;;7.65;6.13;;;;;;;1.54;100.00;101457.72;5070270;28;20055;-60
2021/01/25 09:31:29;;;;;;;12.27;8.20;;;;;;;1.57;100.00;101462.78;5070357;28;20074;-59
2021/01/25 09:33:57;;;;;;;13.55;7.63;;;;;;;1.62;100.00;101463.09;5069860;28;20040;-60
2021/01/25 09:36:23;;;;;;;10.52;6.28;;;;;;;1.67;100.00;101468.81;5052083;28;20037;-61
2021/01/25 09:38:49;;;;;;;14.52;6.30;;;;;;;1.72;100.00;101461.06;5074485;28;20078;-61
2021/01/25 09:41:15;;;;;;;7.85;5.82;;;;;;;1.78;100.00;101463.09;5073994;28;20041;-58
2021/01/25 09:43:41;;;;;;;17.02;8.15;;;;;;;1.87;100.00;101459.38;5074171;28;20162;-59
2021/01/25 09:46:07;;;;;;;12.35;7.68;;;;;;;1.94;100.00;101465.78;5073770;28;20045;-63
2021/01/25 09:48:32;;;;;;;9.65;6.68;;;;;;;2.00;100.00;101465.09;5074477;28;20398;-65
2021/01/25 09:50:58;;;;;;;10.13;7.75;;;;;;;2.06;100.00;101463.56;5090835;28;20082;-62
2021/01/25 09:53:24;;;;;;;10.52;6.68;;;;;;;2.12;100.00;101470.97;5082138;28;20036;-62
2021/01/25 09:55:50;;;;;;;10.15;6.75;;;;;;;2.16;100.00;101474.16;5074181;28;20512;-62
2021/01/25 09:58:18;;;;;;;9.30;6.25;;;;;;;2.18;100.00;101475.66;5074227;28;20040;-62
2021/01/25 10:00:44;;;;;;;12.63;7.18;;;;;;;2.21;100.00;101475.31;5074262;28;20409;-61
2021/01/25 10:03:10;;;;;;;9.38;6.63;;;;;;;2.25;100.00;101489.28;5073808;28;20040;-62
2021/01/25 10:05:35;;;;;;;12.85;7.25;;;;;;;2.29;100.00;101485.25;5074075;28;20037;-62
2021/01/25 10:08:01;;;;;;;11.10;7.38;;;;;;;2.36;100.00;101491.63;5073668;28;20044;-62
2021/01/25 10:10:28;;;;;;;12.55;8.52;;;;;;;2.43;100.00;101508.81;5073911;28;20114;-62
2021/01/25 10:12:55;;;;;;;15.80;8.93;;;;;;;2.50;100.00;101506.25;5073884;28;20040;-62
2021/01/25 10:15:21;;;;;;;9.52;6.80;;;;;;;2.52;100.00;101506.91;5056015;28;20043;-62
2021/01/25 10:17:46;;;;;;;17.70;9.55;;;;;;;2.57;100.00;101509.91;5073697;28;20123;-62
2021/01/25 10:20:13;;;;;;;20.67;11.73;;;;;;;2.65;100.00;101518.84;5073432;28;20098;-62
2021/01/25 10:22:39;;;;;;;19.17;12.77;;;;;;;2.72;100.00;101514.41;5073870;28;20433;-61
2021/01/25 10:25:07;;;;;;;14.77;8.65;;;;;;;2.85;100.00;101523.81;5073694;28;20091;-63
2021/01/25 10:27:37;;;;;;;17.65;8.88;;;;;;;2.94;100.00;101520.91;5073303;28;20036;-62
2021/01/25 10:30:05;;;;;;;14.50;8.77;;;;;;;3.06;100.00;101525.91;5073446;28;20047;-62
2021/01/25 10:32:30;;;;;;;16.45;8.50;;;;;;;3.18;100.00;101530.75;5055653;28;20044;-62
2021/01/25 10:34:58;;;;;;;10.90;7.05;;;;;;;3.29;100.00;101541.13;5073564;28;20033;-62
2021/01/25 10:37:24;;;;;;;9.38;5.95;;;;;;;3.37;100.00;101536.72;5055240;28;20037;-62
2021/01/25 10:39:50;;;;;;;11.05;6.20;;;;;;;3.45;100.00;101542.91;5073432;28;20631;-62
2021/01/25 10:42:16;;;;;;;10.15;6.30;;;;;;;3.50;100.00;101537.81;5073226;28;20119;-62
2021/01/25 10:44:41;;;;;;;10.45;5.85;;;;;;;3.55;100.00;101545.38;5073319;28;20139;-62
2021/01/25 10:47:07;;;;;;;8.95;7.35;;;;;;;3.62;100.00;101554.44;5073045;28;20066;-62
2021/01/25 10:49:33;;;;;;;12.23;6.38;;;;;;;3.71;100.00;101561.47;5077816;28;20092;-63
2021/01/25 10:51:59;;;;;;;8.15;5.95;;;;;;;3.84;100.00;101564.44;5074130;28;20036;-61
2021/01/25 10:54:25;;;;;;;8.88;5.88;;;;;;;4.00;100.00;101573.44;5072709;28;20037;-65
2021/01/25 10:56:51;;;;;;;9.57;5.13;;;;;;;4.12;100.00;101571.97;5073457;28;20032;-63
2021/01/25 10:59:18;;;;;;;11.32;5.47;;;;;;;4.21;100.00;101585.25;5074536;28;20040;-60
2021/01/25 11:01:44;;;;;;;8.50;5.15;;;;;;;4.26;100.00;101583.84;5076195;28;20415;-61
2021/01/25 11:04:10;;;;;;;10.60;5.07;;;;;;;4.28;100.00;101577.22;5054786;28;20091;-63
2021/01/25 11:06:35;;;;;;;10.80;5.55;;;;;;;4.34;100.00;101575.66;5072384;28;20098;-65
2021/01/25 11:09:01;;;;;;;6.22;5.32;;;;;;;4.37;100.00;101576.16;5072588;28;20040;-65
2021/01/25 11:11:26;;;;;;;8.30;4.90;;;;;;;4.41;100.00;101580.16;5079523;28;20112;-64
2021/01/25 11:13:52;;;;;;;6.65;5.78;;;;;;;4.49;100.00;101574.66;5073741;28;20032;-62
2021/01/25 11:16:18;;;;;;;8.38;5.18;;;;;;;4.56;100.00;101582.88;5075881;28;20043;-65
2021/01/25 11:18:44;;;;;;;8.00;4.80;;;;;;;4.66;100.00;101579.91;5075478;28;20044;-60
2021/01/25 11:21:09;;;;;;;8.60;4.63;;;;;;;4.79;100.00;101575.53;5071702;28;20041;-62
2021/01/25 11:23:35;;;;;;;7.72;4.47;;;;;;;4.92;100.00;101579.47;5072189;28;20044;-62